createdAt,value
2023-01-29T00:00:36.853Z,0.32
2023-01-29T00:06:00.671Z,0.30
2023-01-29T00:08:30.473Z,0.37
2023-01-29T00:11:04.716Z,0.48
2023-01-29T00:13:34.602Z,0.54
2023-01-29T00:16:02.959Z,0.54
2023-01-29T00:18:31.294Z,0.51
2023-01-29T00:20:59.453Z,0.46
2023-01-29T00:23:27.658Z,0.40
2023-01-29T00:25:59.735Z,0.37
2023-01-29T00:29:28.269Z,0.40
2023-01-29T00:31:56.896Z,0.49
2023-01-29T00:34:33.102Z,0.47
2023-01-29T00:37:04.896Z,0.43
2023-01-29T00:39:47.873Z,0.38
2023-01-29T00:42:35.279Z,0.33
2023-01-29T00:45:03.823Z,0.27
2023-01-29T00:47:33.811Z,0.27
2023-01-29T00:50:10.318Z,0.31
2023-01-29T00:52:41.213Z,0.32
2023-01-29T00:55:11.002Z,0.29
2023-01-29T00:57:39.291Z,0.26
2023-01-29T01:00:10.410Z,0.19
2023-01-29T01:03:04.648Z,0.14
2023-01-29T01:05:33.409Z,0.16
2023-01-29T01:08:01.684Z,0.23
2023-01-29T01:10:31.918Z,0.27
2023-01-29T01:13:01.735Z,0.27
2023-01-29T01:15:40.132Z,0.24
2023-01-29T01:18:08.275Z,0.19
2023-01-29T01:20:36.911Z,0.15
2023-01-29T01:23:05.411Z,0.12
2023-01-29T01:25:34.020Z,0.15
2023-01-29T01:28:02.198Z,0.20
2023-01-29T01:30:30.750Z,0.25
2023-01-29T01:33:01.946Z,0.25
2023-01-29T01:35:31.588Z,0.21
2023-01-29T01:38:01.413Z,0.16
2023-01-29T01:40:30.151Z,0.11
2023-01-29T01:42:59.430Z,0.12
2023-01-29T01:45:36.075Z,0.17
2023-01-29T01:48:09.128Z,0.19
2023-01-29T01:50:56.770Z,0.18
2023-01-29T01:53:40.646Z,0.16
2023-01-29T01:56:13.286Z,0.12
2023-01-29T01:58:47.968Z,0.09
2023-01-29T02:01:16.967Z,0.13
2023-01-29T02:04:10.737Z,0.20
2023-01-29T02:06:58.747Z,0.23
2023-01-29T02:09:40.924Z,0.21
2023-01-29T02:12:13.247Z,0.17
2023-01-29T02:14:42.083Z,0.12
2023-01-29T02:17:12.508Z,0.08
2023-01-29T02:19:43.591Z,0.11
2023-01-29T02:22:28.346Z,0.17
2023-01-29T02:25:21.929Z,0.20
2023-01-29T02:28:12.373Z,0.20
2023-01-29T02:30:48.135Z,0.20
2023-01-29T02:33:37.628Z,0.20
2023-01-29T02:36:30.747Z,0.16
2023-01-29T02:39:04.821Z,0.20
2023-01-29T02:42:06.288Z,0.27
2023-01-29T02:44:40.612Z,0.29
2023-01-29T02:47:20.098Z,0.26
2023-01-29T02:49:56.423Z,0.20
2023-01-29T02:52:33.648Z,0.16
2023-01-29T02:55:13.115Z,0.12
2023-01-29T02:57:43.492Z,0.16
2023-01-29T03:00:25.552Z,0.24
2023-01-29T03:03:10.539Z,0.22
2023-01-29T03:05:56.662Z,0.15
2023-01-29T05:19:55.709Z,-0.77
2023-01-29T05:22:24.413Z,-0.38
2023-01-29T05:24:52.695Z,-0.36
2023-01-29T05:27:45.807Z,-0.30
2023-01-29T05:30:14.351Z,-0.22
2023-01-29T05:32:42.726Z,-0.17
2023-01-29T05:35:14.157Z,-0.16
2023-01-29T05:37:42.516Z,-0.18
2023-01-29T05:40:11.123Z,-0.21
2023-01-29T05:42:40.670Z,-0.25
2023-01-29T05:45:10.220Z,-0.27
2023-01-29T05:47:38.432Z,-0.23
2023-01-29T05:50:09.028Z,-0.16
2023-01-29T05:52:42.282Z,-0.14
2023-01-29T05:55:10.797Z,-0.18
2023-01-29T05:57:40.359Z,-0.21
2023-01-29T06:00:09.464Z,-0.24
2023-01-29T06:02:40.624Z,-0.28
2023-01-29T06:05:09.241Z,-0.32
2023-01-29T06:07:41.242Z,-0.29
2023-01-29T06:10:16.015Z,-0.23
2023-01-29T06:12:44.888Z,-0.20
2023-01-29T06:15:15.635Z,-0.21
2023-01-29T06:17:46.329Z,-0.21
2023-01-29T06:20:15.180Z,-0.25
2023-01-29T06:22:44.297Z,-0.28
2023-01-29T06:25:12.552Z,-0.31
2023-01-29T06:27:40.884Z,-0.27
2023-01-29T06:30:09.601Z,-0.19
2023-01-29T06:32:38.085Z,-0.15
2023-01-29T06:41:09.773Z,-0.17
2023-01-29T06:43:38.938Z,-0.21
2023-01-29T06:46:07.788Z,-0.24
2023-01-29T06:48:36.282Z,-0.21
2023-01-29T06:51:10.035Z,-0.16
2023-01-29T06:53:38.799Z,-0.14
2023-01-29T06:56:07.598Z,-0.15
2023-01-29T06:58:39.035Z,-0.18
2023-01-29T07:01:15.543Z,-0.21
2023-01-29T07:03:53.691Z,-0.28
2023-01-29T07:06:28.516Z,-0.33
2023-01-29T07:08:57.017Z,-0.31
2023-01-29T07:11:28.529Z,-0.23
2023-01-29T07:13:57.048Z,-0.20
2023-01-29T07:16:26.666Z,-0.20
2023-01-29T07:18:55.032Z,-0.20
2023-01-29T07:21:23.584Z,-0.22
2023-01-29T07:23:51.844Z,-0.22
2023-01-29T07:26:20.589Z,-0.24
2023-01-29T07:28:48.826Z,-0.27
2023-01-29T07:31:17.095Z,-0.27
2023-01-29T07:33:45.701Z,-0.21
2023-01-29T07:36:14.492Z,-0.19
2023-01-29T07:38:42.696Z,-0.21
2023-01-29T07:41:11.721Z,-0.24
2023-01-29T07:43:40.140Z,-0.27
2023-01-29T07:46:08.350Z,-0.29
2023-01-29T07:48:38.661Z,-0.33
2023-01-29T07:51:06.977Z,-0.36
2023-01-29T07:53:36.011Z,-0.32
2023-01-29T07:56:04.549Z,-0.24
2023-01-29T07:58:34.965Z,-0.22
2023-01-29T08:01:07.958Z,-0.23
2023-01-29T11:21:07.066Z,-0.58
2023-01-29T11:23:35.687Z,-0.27
2023-01-29T11:26:07.441Z,-0.28
2023-01-29T11:28:47.001Z,-0.27
2023-01-29T11:31:37.225Z,-0.26
2023-01-29T11:34:27.878Z,-0.34
2023-01-29T11:36:58.269Z,-0.46
2023-01-29T11:39:27.931Z,-0.58
2023-01-29T11:42:00.650Z,-0.70
2023-01-29T11:44:39.826Z,-0.79
2023-01-29T11:47:31.264Z,-0.80
2023-01-29T11:50:01.583Z,-0.73
2023-01-29T11:52:41.198Z,-0.72
2023-01-29T11:55:40.967Z,-0.75
2023-01-29T11:58:31.866Z,-0.79
2023-01-29T12:01:01.099Z,-0.85
2023-01-29T12:03:40.179Z,-0.92
2023-01-29T12:06:09.363Z,-0.87
2023-01-29T12:08:38.923Z,-0.78
2023-01-29T12:11:24.069Z,-0.73
2023-01-29T12:13:57.570Z,-0.71
2023-01-29T12:16:40.830Z,-0.70
2023-01-29T12:19:26.624Z,-0.69
2023-01-29T12:22:20.202Z,-0.71
2023-01-29T12:24:55.703Z,-0.72
2023-01-29T12:27:32.231Z,-0.64
2023-01-29T12:30:14.754Z,-0.52
2023-01-29T12:33:05.698Z,-0.47
2023-01-29T12:35:43.143Z,-0.49
2023-01-29T12:38:22.108Z,-0.52
2023-01-29T12:40:59.842Z,-0.54
2023-01-29T12:43:33.587Z,-0.56
2023-01-29T12:46:01.764Z,-0.59
2023-01-29T12:48:34.763Z,-0.58
2023-01-29T12:51:27.091Z,-0.52
2023-01-29T12:54:07.841Z,-0.48
2023-01-29T12:56:38.258Z,-0.54
2023-01-29T12:59:19.844Z,-0.62
2023-01-29T13:01:51.755Z,-0.68
2023-01-29T13:04:29.806Z,-0.72
2023-01-29T13:07:08.728Z,-0.77
2023-01-29T13:09:39.199Z,-0.75
2023-01-29T13:12:15.932Z,-0.71
2023-01-29T13:14:58.849Z,-0.64
2023-01-29T13:17:38.696Z,-0.61
2023-01-29T13:20:30.571Z,-0.59
2023-01-29T13:23:02.442Z,-0.59
2023-01-29T13:25:30.784Z,-0.61
2023-01-29T13:27:59.204Z,-0.64
2023-01-29T13:30:33.693Z,-0.67
2023-01-29T13:33:12.108Z,-0.68
2023-01-29T13:36:01.353Z,-0.65
2023-01-29T13:38:33.635Z,-0.64
2023-01-29T13:41:05.066Z,-0.62
2023-01-29T13:43:37.671Z,-0.62
2023-01-29T13:46:11.898Z,-0.65
2023-01-29T13:48:45.512Z,-0.67
2023-01-29T13:51:17.177Z,-0.71
2023-01-29T13:54:08.094Z,-0.76
2023-01-29T13:56:36.672Z,-0.81
2023-01-29T13:59:45.243Z,-0.74
2023-01-29T14:02:22.845Z,-0.63
2023-01-29T14:05:34.386Z,-0.57
2023-01-29T14:08:06.260Z,-0.55
2023-01-29T14:10:35.547Z,-0.60
2023-01-29T14:13:18.725Z,-0.65
2023-01-29T14:15:59.322Z,-0.69
2023-01-29T14:18:31.493Z,-0.73
2023-01-29T14:21:28.696Z,-0.74
2023-01-29T17:18:36.821Z,-0.80
2023-01-29T17:22:27.801Z,-0.73
2023-01-29T17:24:54.613Z,-0.67
2023-01-29T17:27:23.080Z,-0.65
2023-01-29T17:29:49.805Z,-0.65
2023-01-29T17:32:18.268Z,-0.65
2023-01-29T17:34:46.349Z,-0.66
2023-01-29T17:37:14.648Z,-0.70
2023-01-29T17:39:42.874Z,-0.71
2023-01-29T17:42:35.722Z,-0.72
2023-01-29T17:45:02.619Z,-0.72
2023-01-29T17:47:30.491Z,-0.65
2023-01-29T17:49:57.995Z,-0.55
2023-01-29T17:52:27.631Z,-0.51
2023-01-29T17:54:54.319Z,-0.53
2023-01-29T17:57:24.941Z,-0.55
2023-01-29T17:59:52.446Z,-0.58
2023-01-29T18:02:28.737Z,-0.61
2023-01-29T18:04:59.568Z,-0.65
2023-01-29T18:07:26.308Z,-0.69
2023-01-29T18:09:53.445Z,-0.74
2023-01-29T18:12:20.269Z,-0.77
2023-01-29T18:14:48.187Z,-0.79
2023-01-29T18:17:22.183Z,-0.76
2023-01-29T18:19:49.214Z,-0.67
2023-01-29T18:22:16.827Z,-0.62
2023-01-29T18:24:44.518Z,-0.59
2023-01-29T18:27:12.214Z,-0.58
2023-01-29T18:29:41.721Z,-0.58
2023-01-29T18:32:11.634Z,-0.59
2023-01-29T18:34:43.155Z,-0.60
2023-01-29T18:37:12.175Z,-0.63
2023-01-29T18:39:39.918Z,-0.67
2023-01-29T18:42:06.908Z,-0.69
2023-01-29T18:44:39.284Z,-0.71
2023-01-29T18:47:07.128Z,-0.66
2023-01-29T18:49:38.339Z,-0.58
2023-01-29T18:52:06.251Z,-0.54
2023-01-29T18:54:33.640Z,-0.53
2023-01-29T18:57:13.320Z,-0.54
2023-01-29T18:59:47.273Z,-0.58
2023-01-29T19:02:15.613Z,-0.64
2023-01-29T19:04:42.415Z,-0.68
2023-01-29T19:07:09.980Z,-0.73
2023-01-29T19:09:37.880Z,-0.78
2023-01-29T19:12:06.253Z,-0.82
2023-01-29T19:14:34.841Z,-0.91
2023-01-29T19:17:04.296Z,-0.93
2023-01-29T19:19:31.910Z,-0.89
2023-01-29T19:21:59.038Z,-0.87
2023-01-29T19:24:27.059Z,-0.88
2023-01-29T19:26:53.956Z,-0.91
2023-01-29T19:29:21.334Z,-0.95
2023-01-29T19:31:48.841Z,-1.00
2023-01-29T19:34:15.911Z,-1.04
2023-01-29T19:36:46.043Z,-1.10
2023-01-29T19:39:14.258Z,-1.16
2023-01-29T19:41:41.297Z,-1.21
2023-01-29T19:44:09.879Z,-1.25
2023-01-29T19:46:38.277Z,-1.24
2023-01-29T19:49:06.439Z,-1.17
2023-01-29T19:51:33.424Z,-1.12
2023-01-29T19:54:01.867Z,-1.12
2023-01-29T19:56:29.510Z,-1.14
2023-01-29T19:58:59.131Z,-1.15
2023-01-29T20:01:29.978Z,-1.16
2023-01-29T20:03:57.205Z,-1.18
2023-01-29T20:06:30.452Z,-1.20
2023-01-29T20:08:57.497Z,-1.21
2023-01-29T20:11:25.098Z,-1.21
2023-01-29T20:13:56.339Z,-1.22
2023-01-29T20:16:25.034Z,-1.15
2023-01-29T20:18:52.278Z,-1.05
2023-01-29T20:21:21.611Z,-1.01
2023-01-29T20:23:49.616Z,-0.99
2023-01-29T20:26:17.043Z,-0.99
2023-01-29T20:28:47.477Z,-0.99
2023-01-29T20:31:14.701Z,-1.02
2023-01-29T20:33:41.833Z,-1.07
2023-01-29T20:36:10.217Z,-1.11
2023-01-29T20:38:37.841Z,-1.15
2023-01-29T20:41:12.650Z,-1.19
2023-01-29T20:43:39.851Z,-1.23
2023-01-29T20:46:06.894Z,-1.22
2023-01-29T20:48:38.154Z,-1.18
2023-01-29T20:51:09.308Z,-1.21
2023-01-29T20:53:36.738Z,-1.29
2023-01-29T20:56:04.645Z,-1.39
2023-01-29T20:58:32.817Z,-1.50
2023-01-29T21:00:59.976Z,-1.58
2023-01-29T21:03:26.887Z,-1.65
2023-01-29T21:05:53.919Z,-1.69
2023-01-29T21:08:24.446Z,-1.65
2023-01-29T21:10:52.265Z,-1.55
2023-01-29T21:13:19.121Z,-1.50
2023-01-29T21:15:46.120Z,-1.49
2023-01-29T21:18:13.011Z,-1.48
2023-01-29T21:20:40.147Z,-1.48
2023-01-29T21:23:07.381Z,-1.50
2023-01-29T21:25:34.747Z,-1.52
2023-01-29T21:28:03.741Z,-1.55
2023-01-29T21:30:30.831Z,-1.57
2023-01-29T21:32:57.916Z,-1.59
2023-01-29T21:35:24.679Z,-1.61
2023-01-29T21:37:51.529Z,-1.56
2023-01-29T21:40:19.634Z,-1.45
2023-01-29T21:43:06.171Z,-1.39
2023-01-29T21:45:35.646Z,-1.38
2023-01-29T21:48:02.613Z,-1.44
2023-01-29T21:50:29.585Z,-1.50
2023-01-29T21:52:57.301Z,-1.53
2023-01-29T21:55:24.177Z,-1.54
2023-01-29T21:57:50.935Z,-1.59
2023-01-29T22:00:18.666Z,-1.63
2023-01-29T22:02:47.049Z,-1.63
2023-01-29T22:05:19.450Z,-1.63
2023-01-29T22:07:47.790Z,-1.55
2023-01-29T22:10:16.832Z,-1.45
2023-01-29T22:12:45.861Z,-1.39
2023-01-29T22:15:13.319Z,-1.35
2023-01-29T22:17:41.189Z,-1.32
2023-01-29T22:20:12.331Z,-1.31
2023-01-29T22:22:42.612Z,-1.30
2023-01-29T22:25:09.487Z,-1.31
2023-01-29T22:27:36.319Z,-1.34
2023-01-29T22:30:04.804Z,-1.38
2023-01-29T22:32:32.479Z,-1.41
2023-01-29T22:35:00.156Z,-1.45
2023-01-29T22:37:26.957Z,-1.49
2023-01-29T22:39:53.803Z,-1.51
2023-01-29T22:42:20.831Z,-1.47
2023-01-29T22:44:47.989Z,-1.37
2023-01-29T22:47:18.826Z,-1.31
2023-01-29T22:49:49.569Z,-1.28
2023-01-29T22:52:20.504Z,-1.28
2023-01-29T22:54:47.297Z,-1.28
2023-01-29T22:57:14.268Z,-1.31
2023-01-29T22:59:41.729Z,-1.34
2023-01-29T23:02:08.588Z,-1.38
2023-01-29T23:04:38.352Z,-1.44
2023-01-29T23:07:05.899Z,-1.49
2023-01-29T23:09:51.624Z,-1.50
2023-01-29T23:12:20.131Z,-1.49
2023-01-29T23:14:48.344Z,-1.42
2023-01-29T23:17:17.361Z,-1.38
2023-01-29T23:19:46.251Z,-1.38
2023-01-29T23:22:14.684Z,-1.40
2023-01-29T23:24:42.943Z,-1.43
2023-01-29T23:27:17.071Z,-1.46
2023-01-29T23:29:46.645Z,-1.51
2023-01-29T23:32:19.395Z,-1.54
2023-01-29T23:34:47.845Z,-1.59
2023-01-29T23:37:16.056Z,-1.63
2023-01-29T23:39:44.237Z,-1.69
2023-01-29T23:42:12.570Z,-1.74
2023-01-29T23:44:41.263Z,-1.79
2023-01-29T23:47:09.799Z,-1.77
2023-01-29T23:49:38.001Z,-1.71
2023-01-29T23:52:06.491Z,-1.69
2023-01-29T23:54:34.964Z,-1.70
2023-01-29T23:57:03.159Z,-1.73
2023-01-29T23:59:32.484Z,-1.78
